Olga, WA (98279)

11:04 AM PST on January 22, 2017 (GMT -0800)
Blakely island 49 | | Change Station
Active Advisory: Small Craft Advisory

Elev -3 ft 48.58 °N, 122.82 °W | Updated 6 seconds ago

Overcast
Overcast
47.1 °F
Feels Like 44 °F
N
6.0
Wind Variable Wind from ESE
Gusts 6.0 mph

Today
High -- | Low -- °F
--% Chance of Precip.
Yesterday
High -- | Low -- °F
Precip. -- in
Pressure 29.48 in
Visibility 9.0 miles
Clouds Few 2900 ft
Few 3600 ft
Windchill 44 °F
Dew Point 39 °F
Humidity 74%
Rainfall 0.00 in
Snow Depth Not available.
7:52 AM 4:54 PM
Waning Crescent, 24% visible
METAR KORS 221855Z AUTO 14004KT 9SM FEW029 FEW036 07/03 A2948 RMK AO2 P0001
Pressure 29.48 in
Visibility 9.0 miles
Clouds Few 2900 ft
Few 3600 ft
Windchill 44 °F
Dew Point 39 °F
Humidity 74%
Rainfall 0.00 in
Snow Depth Not available.
7:52 AM 4:54 PM
Waning Crescent, 24% visible
METAR KORS 221855Z AUTO 14004KT 9SM FEW029 FEW036 07/03 A2948 RMK AO2 P0001

Get Your Daily Forecast Email!

Thanks for signing up!

Be on the lookout for a verification email in your inbox.

You'll start receiving the daily forecast at 8 AM.

×

10-Day Weather Forecast

Almanac

Astronomy

Jan. 22, 2017 Rise Set
Actual Time
Civil Twilight
Nautical Twilight
Astronomical Twilight
Moon
Length of Visible Light
Length of Day
Tomorrow will be .
, % of the Moon is Illuminated

Today's Extremes

State Highs State Lows

Community

WunderPhotos

Upload Photos

1,962,540 photos uploaded!

WunderBlog® & News

Nearby

Air Quality

  Air Quality AQ Index Pollutant
Not available.

Snow Depth

Station Depth Elevation

Earthquake Activity

City Distance Mag. Time & Date
Minimum magnitude displayed is 2.5.

Coastal Water Temperatures

Place Temperature

Stations

Nearby Weather Stations

Station Location Temp. Windchill Dew Point Humidity Wind Precip. Elev Updated Type
                   

Watches & Warnings

Small Craft Advisory
Issued: 8:49 AM PST Jan. 22, 2017 – National Weather Service

... Small Craft Advisory remains in effect until 6 PM PST this
evening...

* winds... southeast 15 to 25 knots.

Precautionary/preparedness actions...

A Small Craft Advisory means that wind speeds of 21 to 33 knots are
expected to produce hazardous wave conditions to small craft.
Inexperienced mariners... especially those operating smaller vessels
should avoid navigating in these conditions.